Time;durP1;ratioP1;P1;durP2;ratioP2;P2;SDS_P1;SDS_P2;PMS_P1;PMS_P2;Temp;Humidity;BMP_temperature;BMP_pressure;BME280_temperature;BME280_humidity;BME280_pressure;Samples;Min_cycle;Max_cycle;Signal;HPM_P1;HPM_P2
2021/03/16 00:01:20;;;;;;;25.95;7.38;;;13.50;53.30;;;;;;5106915;28;20024;-74
2021/03/16 00:03:46;;;;;;;20.10;5.82;;;13.50;53.40;;;;;;5105266;28;20074;-73
2021/03/16 00:06:16;;;;;;;24.83;5.05;;;13.60;52.40;;;;;;5107657;28;20453;-75
2021/03/16 00:08:43;;;;;;;21.20;6.20;;;13.70;52.20;;;;;;5107615;28;20023;-75
2021/03/16 00:11:10;;;;;;;25.80;7.47;;;13.60;51.90;;;;;;5107316;28;20034;-75
2021/03/16 00:13:37;;;;;;;26.65;5.55;;;13.50;53.20;;;;;;5106215;28;20020;-75
2021/03/16 00:16:03;;;;;;;29.02;6.45;;;13.50;52.80;;;;;;5107383;28;20432;-75
2021/03/16 00:18:30;;;;;;;27.83;6.78;;;13.40;53.30;;;;;;5105438;28;20023;-75
2021/03/16 00:20:56;;;;;;;36.75;6.57;;;13.60;52.90;;;;;;5104813;28;20035;-76
2021/03/16 00:23:22;;;;;;;25.85;6.20;;;13.50;53.50;;;;;;5107492;28;20016;-75
2021/03/16 00:25:49;;;;;;;14.13;4.55;;;13.50;53.20;;;;;;5105211;28;20365;-75
2021/03/16 00:28:15;;;;;;;22.23;5.05;;;13.50;52.80;;;;;;5105263;28;20524;-75
2021/03/16 00:30:42;;;;;;;33.05;5.45;;;13.50;52.10;;;;;;5107723;28;20032;-75
2021/03/16 00:33:08;;;;;;;22.45;6.07;;;13.70;52.50;;;;;;5107763;28;20031;-75
2021/03/16 00:35:34;;;;;;;30.52;6.03;;;13.80;52.10;;;;;;5105102;28;20073;-77
2021/03/16 00:38:01;;;;;;;31.85;7.07;;;14.00;51.10;;;;;;5107257;28;20158;-75
2021/03/16 00:40:27;;;;;;;23.85;6.40;;;14.10;50.20;;;;;;5105234;28;20736;-75
2021/03/16 00:42:54;;;;;;;22.02;5.70;;;14.20;50.80;;;;;;5104941;28;20036;-75
2021/03/16 00:45:20;;;;;;;22.48;6.13;;;14.20;50.20;;;;;;5105629;28;20020;-75
2021/03/16 00:47:47;;;;;;;27.65;6.80;;;14.30;50.00;;;;;;5106386;28;20016;-76
2021/03/16 00:50:13;;;;;;;20.85;6.32;;;14.20;50.40;;;;;;5102138;28;20028;-75
2021/03/16 00:52:40;;;;;;;25.38;5.70;;;14.40;50.00;;;;;;5106222;28;20533;-76
2021/03/16 00:55:07;;;;;;;27.90;6.60;;;14.30;49.60;;;;;;5104483;28;20568;-75
2021/03/16 00:57:33;;;;;;;31.45;7.22;;;14.40;48.20;;;;;;5103444;28;20032;-75
2021/03/16 01:00:00;;;;;;;18.90;5.13;;;14.40;48.10;;;;;;5093579;28;20369;-76
2021/03/16 01:02:27;;;;;;;18.33;5.97;;;14.40;47.40;;;;;;5098498;28;20125;-76
2021/03/16 01:04:53;;;;;;;19.55;5.13;;;14.40;46.80;;;;;;5097946;28;20030;-76
2021/03/16 01:07:20;;;;;;;25.73;6.13;;;14.50;46.00;;;;;;5104042;28;20035;-77
2021/03/16 01:09:46;;;;;;;20.25;5.43;;;14.70;45.30;;;;;;5102011;28;20053;-76
2021/03/16 01:12:12;;;;;;;12.73;3.47;;;14.60;45.00;;;;;;5101892;28;20035;-76
2021/03/16 01:14:39;;;;;;;9.40;3.00;;;14.20;44.10;;;;;;5097665;28;20115;-76
2021/03/16 01:17:05;;;;;;;6.47;2.30;;;13.90;44.20;;;;;;5096788;28;20089;-76
2021/03/16 01:19:32;;;;;;;10.05;3.88;;;13.70;44.40;;;;;;5099661;28;20024;-75
2021/03/16 01:21:58;;;;;;;7.20;2.38;;;13.50;44.90;;;;;;5097630;28;20030;-76
2021/03/16 01:24:25;;;;;;;6.13;2.20;;;13.50;44.40;;;;;;5101320;28;20020;-76
2021/03/16 01:26:52;;;;;;;6.47;2.30;;;13.50;46.10;;;;;;5098231;28;20085;-76
2021/03/16 01:29:18;;;;;;;7.82;2.78;;;13.60;44.50;;;;;;5100263;28;20024;-75
2021/03/16 01:31:44;;;;;;;9.05;3.33;;;13.60;44.30;;;;;;5098378;28;20020;-75
2021/03/16 01:34:11;;;;;;;14.60;3.20;;;13.60;45.30;;;;;;5097531;28;20103;-75
2021/03/16 01:36:37;;;;;;;14.13;3.65;;;13.40;46.10;;;;;;5097266;28;20058;-76
2021/03/16 01:39:04;;;;;;;12.35;3.33;;;13.50;46.60;;;;;;5103496;28;20032;-74
2021/03/16 01:41:31;;;;;;;7.75;2.22;;;13.60;45.80;;;;;;5100766;28;20024;-74
2021/03/16 01:43:57;;;;;;;5.38;1.85;;;13.70;44.70;;;;;;5101071;28;20050;-74
2021/03/16 01:46:24;;;;;;;13.40;2.28;;;13.70;43.90;;;;;;5101893;28;20485;-74
2021/03/16 01:48:50;;;;;;;4.30;1.60;;;13.60;45.10;;;;;;5104826;28;20036;-74
2021/03/16 01:51:19;;;;;;;7.72;2.25;;;13.70;44.70;;;;;;5096874;28;20453;-74
2021/03/16 01:53:45;;;;;;;8.10;2.92;;;13.40;45.50;;;;;;5098249;28;20118;-75
2021/03/16 01:56:14;;;;;;;17.52;3.90;;;13.40;46.10;;;;;;5095934;28;20016;-75
2021/03/16 01:58:44;;;;;;;23.30;5.43;;;13.60;47.40;;;;;;5090818;28;20032;-75
2021/03/16 02:01:11;;;;;;;26.30;5.95;;;13.60;48.00;;;;;;5095408;28;20023;-75
2021/03/16 02:03:37;;;;;;;40.90;9.45;;;13.80;48.50;;;;;;5098477;28;20027;-75
2021/03/16 02:06:12;;;;;;;30.45;6.00;;;13.60;49.00;;;;;;5103246;28;20048;-75
2021/03/16 02:08:56;;;;;;;40.83;7.75;;;13.70;49.20;;;;;;5095256;28;20028;-74
2021/03/16 02:12:05;;;;;;;28.85;6.82;;;13.60;49.20;;;;;;5095107;28;20519;-74
2021/03/16 02:14:42;;;;;;;37.90;9.00;;;13.40;49.50;;;;;;4999145;28;20033;-74
2021/03/16 02:17:20;;;;;;;29.92;7.57;;;13.30;49.70;;;;;;5001598;28;20048;-75
2021/03/16 02:19:53;;;;;;;33.88;8.38;;;13.20;49.90;;;;;;5054216;28;20043;-74
2021/03/16 02:22:19;;;;;;;;;;;13.00;50.10;;;;;;5095368;28;20051;-74
2021/03/16 02:24:55;;;;;;;31.52;7.28;;;13.10;49.70;;;;;;5099537;28;19923;-75
2021/03/16 02:27:27;;;;;;;33.17;7.55;;;12.80;51.50;;;;;;5089543;28;20107;-74
2021/03/16 02:30:01;;;;;;;23.98;7.28;;;12.80;50.80;;;;;;5098017;28;20073;-75
2021/03/16 02:32:29;;;;;;;40.90;8.25;;;12.80;51.20;;;;;;5094166;28;20039;-74
2021/03/16 02:35:00;;;;;;;32.63;7.80;;;12.70;51.40;;;;;;5095290;28;20410;-74
2021/03/16 02:37:28;;;;;;;31.27;8.32;;;12.40;51.50;;;;;;5088892;28;20499;-75
2021/03/16 02:39:55;;;;;;;31.02;7.05;;;12.40;51.80;;;;;;5100695;28;20114;-74
2021/03/16 02:42:24;;;;;;;35.72;8.55;;;12.30;52.70;;;;;;5096300;28;20028;-74
2021/03/16 02:44:52;;;;;;;24.23;6.95;;;12.30;52.30;;;;;;5096133;28;20020;-75
2021/03/16 02:47:23;;;;;;;38.40;8.75;;;12.20;52.30;;;;;;5093317;28;20047;-74
2021/03/16 02:49:51;;;;;;;40.70;7.57;;;12.30;52.30;;;;;;5095768;28;20020;-75
2021/03/16 02:52:18;;;;;;;22.08;7.15;;;12.10;52.70;;;;;;5098705;28;20361;-74
2021/03/16 02:54:46;;;;;;;30.65;7.10;;;12.20;52.60;;;;;;5102790;28;20074;-74
2021/03/16 02:57:15;;;;;;;31.13;7.55;;;12.00;52.80;;;;;;5095711;28;20024;-73
2021/03/16 02:59:43;;;;;;;28.83;7.45;;;12.00;52.70;;;;;;5094105;28;20035;-75
2021/03/16 03:02:14;;;;;;;28.13;6.40;;;12.00;51.90;;;;;;5093998;28;20112;-74
2021/03/16 03:04:47;;;;;;;27.42;7.30;;;11.90;52.80;;;;;;5097483;28;20061;-74
2021/03/16 03:07:15;;;;;;;31.58;7.35;;;11.80;52.10;;;;;;5094657;28;20111;-74
2021/03/16 03:09:42;;;;;;;32.47;8.77;;;11.90;52.60;;;;;;5088318;28;20157;-74
2021/03/16 03:12:11;;;;;;;32.97;7.25;;;11.90;53.20;;;;;;5091336;28;20036;-75
2021/03/16 03:14:39;;;;;;;27.52;7.05;;;11.90;52.60;;;;;;5094537;28;20027;-74
2021/03/16 03:17:06;;;;;;;27.58;7.00;;;11.90;53.10;;;;;;5095988;28;20024;-75
2021/03/16 03:19:35;;;;;;;27.17;7.60;;;11.80;53.10;;;;;;5103780;28;20421;-74
2021/03/16 03:22:16;;;;;;;36.72;7.30;;;11.70;52.90;;;;;;5101816;28;20043;-74
2021/03/16 03:24:53;;;;;;;30.02;7.30;;;11.60;53.80;;;;;;5102771;28;20370;-73
2021/03/16 03:27:40;;;;;;;23.77;6.25;;;11.60;53.20;;;;;;5103014;28;20118;-74
2021/03/16 03:30:08;;;;;;;33.40;8.30;;;11.50;53.30;;;;;;5105009;28;20047;-74
2021/03/16 03:32:38;;;;;;;30.80;6.63;;;11.60;52.70;;;;;;5103515;28;20353;-74
2021/03/16 03:35:06;;;;;;;26.98;7.38;;;11.60;52.50;;;;;;5104080;28;20031;-75
2021/03/16 03:37:34;;;;;;;38.30;9.15;;;11.60;52.60;;;;;;5103257;28;20031;-74
2021/03/16 03:40:03;;;;;;;29.05;7.40;;;11.60;52.80;;;;;;5106800;28;20053;-76
2021/03/16 03:42:31;;;;;;;39.55;7.93;;;11.70;52.60;;;;;;5101371;28;20412;-74
2021/03/16 03:45:00;;;;;;;37.67;7.15;;;11.70;52.30;;;;;;5106330;28;20110;-76
2021/03/16 03:47:28;;;;;;;34.25;7.25;;;11.70;53.10;;;;;;5101948;28;20354;-74
2021/03/16 03:49:56;;;;;;;25.52;6.18;;;11.60;53.20;;;;;;5105609;28;20020;-74
2021/03/16 03:52:23;;;;;;;36.60;7.13;;;11.50;53.10;;;;;;5100651;28;20020;-74
2021/03/16 03:54:50;;;;;;;24.10;5.78;;;11.50;53.00;;;;;;5094817;28;20484;-74
2021/03/16 03:57:18;;;;;;;27.27;6.43;;;11.50;52.70;;;;;;5104765;28;20044;-74
2021/03/16 03:59:47;;;;;;;30.20;6.78;;;11.50;53.00;;;;;;5103323;28;20051;-74
2021/03/16 04:02:14;;;;;;;36.83;6.28;;;11.50;52.90;;;;;;5104718;28;20169;-74
2021/03/16 04:04:41;;;;;;;32.08;7.13;;;11.50;53.10;;;;;;5100120;28;20020;-75
2021/03/16 04:07:08;;;;;;;25.88;6.65;;;11.60;52.80;;;;;;5102464;28;20080;-74
2021/03/16 04:09:36;;;;;;;31.90;8.48;;;11.70;53.00;;;;;;5105128;28;20544;-74
2021/03/16 04:12:03;;;;;;;23.23;5.95;;;11.60;52.90;;;;;;5105417;28;20367;-74
2021/03/16 04:14:32;;;;;;;35.25;8.40;;;11.40;52.60;;;;;;5100502;28;20035;-74
2021/03/16 04:17:00;;;;;;;27.33;6.45;;;11.40;53.60;;;;;;5103027;28;20477;-75
2021/03/16 04:19:26;;;;;;;27.52;5.55;;;11.40;53.00;;;;;;5100238;28;20076;-75
2021/03/16 04:21:53;;;;;;;26.60;6.90;;;11.40;53.20;;;;;;5097572;28;20514;-76
2021/03/16 04:24:21;;;;;;;27.58;6.82;;;11.40;53.80;;;;;;5099460;28;20114;-74
2021/03/16 04:26:47;;;;;;;27.05;6.35;;;11.50;53.10;;;;;;5102867;28;20145;-74
2021/03/16 04:29:14;;;;;;;16.70;4.63;;;11.40;52.80;;;;;;5101235;28;20035;-74
2021/03/16 04:31:40;;;;;;;22.00;5.50;;;11.40;53.40;;;;;;5100737;28;20023;-74
2021/03/16 04:34:07;;;;;;;33.13;6.85;;;11.40;53.30;;;;;;5100185;28;20036;-74
2021/03/16 04:36:33;;;;;;;23.67;7.10;;;11.40;53.30;;;;;;5099436;28;20367;-74
2021/03/16 04:39:00;;;;;;;23.67;5.63;;;11.40;53.10;;;;;;5103393;28;20036;-74
2021/03/16 04:41:26;;;;;;;26.45;6.43;;;11.40;52.80;;;;;;5097258;28;20099;-74
2021/03/16 04:43:52;;;;;;;28.20;6.63;;;11.50;52.70;;;;;;5096858;28;20161;-74
2021/03/16 04:46:19;;;;;;;32.45;7.13;;;11.50;53.80;;;;;;5097424;28;20036;-74
2021/03/16 04:48:45;;;;;;;27.27;6.97;;;11.40;53.60;;;;;;5096062;28;20069;-74
2021/03/16 04:51:12;;;;;;;31.48;7.57;;;11.50;53.80;;;;;;5100916;28;20027;-74
2021/03/16 04:53:38;;;;;;;27.55;6.43;;;11.40;53.60;;;;;;5097704;28;20445;-74
2021/03/16 04:56:05;;;;;;;22.42;6.40;;;11.20;53.30;;;;;;5098732;28;20035;-74
2021/03/16 04:58:31;;;;;;;21.17;6.18;;;11.10;54.50;;;;;;5095089;28;20020;-74
2021/03/16 05:00:57;;;;;;;22.30;5.63;;;11.10;54.30;;;;;;5101900;28;20034;-74
2021/03/16 05:03:24;;;;;;;23.00;5.80;;;11.10;54.80;;;;;;5100389;28;20027;-74
2021/03/16 05:05:50;;;;;;;20.88;6.55;;;11.10;54.20;;;;;;5100783;28;20073;-74
2021/03/16 05:08:17;;;;;;;36.60;8.10;;;11.10;54.70;;;;;;5103073;28;20032;-74
2021/03/16 05:10:43;;;;;;;29.17;6.53;;;11.10;55.20;;;;;;5102043;28;20080;-73
2021/03/16 05:13:10;;;;;;;26.02;7.45;;;11.10;55.10;;;;;;5100148;28;20019;-74
2021/03/16 05:15:37;;;;;;;32.70;9.90;;;11.10;55.20;;;;;;5098466;28;20032;-74
2021/03/16 05:18:04;;;;;;;23.65;8.02;;;11.00;55.40;;;;;;5099023;28;20019;-74
2021/03/16 05:20:30;;;;;;;24.95;6.63;;;11.10;55.20;;;;;;5099339;28;20024;-73
2021/03/16 05:22:57;;;;;;;32.25;8.48;;;11.10;54.80;;;;;;5104413;28;20116;-74
2021/03/16 05:25:23;;;;;;;25.40;7.70;;;11.10;54.50;;;;;;5103431;28;20019;-74
2021/03/16 05:27:49;;;;;;;23.70;6.03;;;11.10;54.70;;;;;;5097725;28;20043;-74
2021/03/16 05:30:16;;;;;;;15.40;5.35;;;11.20;54.20;;;;;;5098501;28;20062;-75
2021/03/16 05:32:43;;;;;;;20.02;6.35;;;11.20;54.10;;;;;;5095562;28;20059;-75
2021/03/16 05:35:10;;;;;;;35.13;6.95;;;11.20;54.20;;;;;;5103089;28;20094;-74
2021/03/16 05:37:37;;;;;;;14.63;4.25;;;11.20;54.10;;;;;;5101382;28;20603;-74
2021/03/16 05:40:05;;;;;;;25.73;9.45;;;11.20;54.30;;;;;;5101948;28;20403;-74
2021/03/16 05:42:31;;;;;;;25.52;5.15;;;11.20;53.80;;;;;;5098594;28;20115;-74
2021/03/16 05:44:59;;;;;;;27.80;5.82;;;11.30;53.40;;;;;;5098696;28;20142;-74
2021/03/16 05:47:27;;;;;;;15.40;4.68;;;11.30;53.50;;;;;;5099621;28;20365;-74
2021/03/16 05:49:58;;;;;;;22.45;5.22;;;11.20;54.30;;;;;;5099506;28;20023;-75
2021/03/16 05:52:24;;;;;;;18.52;4.85;;;11.10;54.60;;;;;;5096993;28;20104;-74
2021/03/16 05:54:54;;;;;;;19.08;5.40;;;11.00;54.80;;;;;;5102875;28;20028;-74
2021/03/16 05:57:21;;;;;;;33.88;6.93;;;10.90;55.10;;;;;;5099257;28;20032;-74
2021/03/16 05:59:48;;;;;;;23.83;5.07;;;10.90;55.10;;;;;;5099009;28;20028;-74
2021/03/16 06:02:18;;;;;;;31.25;6.80;;;10.80;55.60;;;;;;5101619;28;20024;-74
2021/03/16 06:04:45;;;;;;;25.63;5.63;;;10.60;56.80;;;;;;5093533;28;20020;-74
2021/03/16 06:07:17;;;;;;;32.47;6.55;;;10.60;56.00;;;;;;5103186;28;20096;-75
2021/03/16 06:09:44;;;;;;;19.45;6.25;;;10.60;55.90;;;;;;5098566;28;20139;-75
2021/03/16 06:12:11;;;;;;;28.20;6.78;;;10.50;55.90;;;;;;5097925;28;20024;-75
2021/03/16 06:14:39;;;;;;;28.02;8.00;;;10.50;54.60;;;;;;5096867;28;20035;-75
2021/03/16 06:17:05;;;;;;;32.38;7.18;;;10.40;55.80;;;;;;5102329;28;20055;-75
2021/03/16 06:19:36;;;;;;;25.38;8.25;;;10.30;55.60;;;;;;5092835;28;20150;-75
2021/03/16 06:22:05;;;;;;;30.52;7.82;;;10.30;55.30;;;;;;5086181;28;20060;-75
2021/03/16 06:24:33;;;;;;;34.10;8.52;;;10.40;56.70;;;;;;5098060;28;20062;-75
2021/03/16 06:26:59;;;;;;;32.67;8.02;;;10.50;56.60;;;;;;5101267;28;20071;-74
2021/03/16 06:29:25;;;;;;;26.17;7.68;;;10.40;56.30;;;;;;5093791;28;20076;-74
2021/03/16 06:31:52;;;;;;;22.65;7.30;;;10.20;57.30;;;;;;5098706;28;20077;-75
2021/03/16 06:34:27;;;;;;;17.73;5.20;;;10.00;57.40;;;;;;5096130;28;20454;-74
2021/03/16 06:36:59;;;;;;;25.52;6.13;;;9.90;56.80;;;;;;5094584;28;20027;-74
2021/03/16 06:39:26;;;;;;;20.83;6.13;;;10.00;56.20;;;;;;5097375;28;20024;-74
2021/03/16 06:41:54;;;;;;;26.73;5.40;;;9.90;57.20;;;;;;5098594;28;20039;-74
2021/03/16 06:44:22;;;;;;;18.30;4.82;;;9.80;57.30;;;;;;5099613;28;20031;-74
2021/03/16 06:47:00;;;;;;;21.38;6.05;;;9.70;58.40;;;;;;5097947;28;20024;-74
2021/03/16 06:49:27;;;;;;;25.88;5.32;;;9.70;57.80;;;;;;5096296;28;20174;-74
2021/03/16 06:51:54;;;;;;;32.03;9.57;;;9.70;57.70;;;;;;5098467;28;20020;-74
2021/03/16 06:54:24;;;;;;;21.25;5.18;;;9.80;58.70;;;;;;5100799;28;20024;-74
2021/03/16 06:57:01;;;;;;;28.33;6.65;;;9.70;60.30;;;;;;5100446;28;20036;-74
2021/03/16 06:59:32;;;;;;;27.25;6.35;;;9.70;60.00;;;;;;5098358;28;20063;-74
2021/03/16 07:01:59;;;;;;;33.55;6.03;;;9.70;60.80;;;;;;5097785;28;20375;-74
2021/03/16 07:04:27;;;;;;;23.88;6.00;;;9.80;59.80;;;;;;5094447;28;20032;-74
2021/03/16 07:06:53;;;;;;;18.42;5.60;;;9.80;59.50;;;;;;5102118;28;20073;-74
2021/03/16 07:09:21;;;;;;;24.08;6.25;;;9.90;59.50;;;;;;5104232;28;20052;-74
2021/03/16 07:11:55;;;;;;;32.00;7.18;;;9.90;58.10;;;;;;5101423;28;20030;-74
2021/03/16 07:14:22;;;;;;;26.38;6.72;;;10.10;57.70;;;;;;5097455;28;20066;-75
2021/03/16 07:16:50;;;;;;;37.38;7.13;;;10.20;59.00;;;;;;5095454;28;20420;-74
2021/03/16 07:19:19;;;;;;;42.10;7.47;;;10.30;59.50;;;;;;5097758;28;20028;-74
2021/03/16 07:21:51;;;;;;;30.35;6.90;;;10.40;58.80;;;;;;5085488;28;20074;-74
2021/03/16 07:24:27;;;;;;;24.67;7.22;;;10.40;58.50;;;;;;5097568;28;20032;-74
2021/03/16 07:26:55;;;;;;;35.78;7.90;;;10.40;59.60;;;;;;5099423;28;20347;-75
2021/03/16 07:29:22;;;;;;;26.60;6.18;;;10.40;58.40;;;;;;5094799;28;20020;-74
2021/03/16 07:31:50;;;;;;;32.65;6.50;;;10.30;58.00;;;;;;5093640;28;20027;-74
2021/03/16 07:34:20;;;;;;;35.28;6.40;;;10.30;58.30;;;;;;5092802;28;20031;-74
2021/03/16 07:36:49;;;;;;;35.20;6.90;;;10.30;58.90;;;;;;5089999;28;20028;-74
2021/03/16 07:39:21;;;;;;;27.25;7.47;;;10.30;58.30;;;;;;5100776;28;20486;-75
2021/03/16 07:41:48;;;;;;;36.15;8.02;;;10.10;58.40;;;;;;5101802;28;20051;-74
2021/03/16 07:44:18;;;;;;;32.10;6.65;;;10.00;58.10;;;;;;5097410;28;20047;-74
2021/03/16 07:46:59;;;;;;;23.77;5.47;;;9.90;58.70;;;;;;5101343;28;20050;-74
2021/03/16 07:49:37;;;;;;;26.20;7.22;;;9.80;58.80;;;;;;5092887;28;20012;-74
2021/03/16 07:52:25;;;;;;;22.23;6.38;;;9.70;58.70;;;;;;5096856;28;20059;-75
2021/03/16 07:54:52;;;;;;;30.88;6.07;;;9.70;58.50;;;;;;5101503;28;20137;-74
2021/03/16 07:57:27;;;;;;;24.55;6.78;;;9.70;59.10;;;;;;5100838;28;20047;-74
2021/03/16 08:00:07;;;;;;;31.58;6.50;;;9.70;59.50;;;;;;5100501;28;20023;-75
2021/03/16 08:02:37;;;;;;;24.48;5.53;;;9.40;59.50;;;;;;5099366;28;20047;-74
2021/03/16 08:05:24;;;;;;;18.92;5.03;;;9.20;60.50;;;;;;5098026;28;20025;-75
2021/03/16 08:07:50;;;;;;;24.92;6.32;;;9.10;60.30;;;;;;5098918;28;20047;-77
2021/03/16 08:10:31;;;;;;;39.53;8.85;;;9.10;60.50;;;;;;5102410;28;20028;-75
2021/03/16 08:13:03;;;;;;;28.23;6.35;;;9.20;59.60;;;;;;5106743;28;20028;-75
2021/03/16 08:15:44;;;;;;;27.83;5.85;;;9.10;59.50;;;;;;5101067;28;20035;-75
2021/03/16 08:18:12;;;;;;;31.98;6.03;;;9.10;59.40;;;;;;5102729;28;20028;-75
2021/03/16 08:20:39;;;;;;;29.20;6.45;;;9.00;60.00;;;;;;5101954;28;20335;-75
2021/03/16 08:23:13;;;;;;;19.77;5.85;;;9.00;59.90;;;;;;5105364;28;20101;-74
2021/03/16 08:25:44;;;;;;;33.25;6.82;;;9.00;60.30;;;;;;5103126;28;20815;-76
2021/03/16 08:28:17;;;;;;;27.80;6.10;;;8.90;60.00;;;;;;5101746;28;20028;-74
2021/03/16 08:30:43;;;;;;;26.67;5.10;;;8.80;60.30;;;;;;5104048;28;20023;-74
2021/03/16 08:33:11;;;;;;;19.88;5.97;;;8.80;60.50;;;;;;5102195;28;20028;-75
2021/03/16 08:35:42;;;;;;;23.83;6.68;;;8.70;61.00;;;;;;5099105;28;20051;-74
2021/03/16 08:38:09;;;;;;;36.95;6.15;;;8.80;60.50;;;;;;5106233;28;20035;-76
2021/03/16 08:40:36;;;;;;;25.88;6.25;;;8.80;60.90;;;;;;5100929;28;20035;-74
2021/03/16 08:43:10;;;;;;;25.67;6.68;;;8.70;60.30;;;;;;5100718;28;20085;-74
2021/03/16 08:45:37;;;;;;;30.85;6.60;;;8.70;61.70;;;;;;5096333;28;20448;-74
2021/03/16 08:48:04;;;;;;;36.70;7.85;;;8.60;60.20;;;;;;5098328;28;20018;-74
2021/03/16 08:50:31;;;;;;;24.95;5.90;;;8.50;60.50;;;;;;5102530;28;20024;-74
2021/03/16 08:52:58;;;;;;;36.60;7.93;;;8.50;60.90;;;;;;5105050;28;20043;-74
2021/03/16 08:55:26;;;;;;;25.83;6.90;;;8.60;60.70;;;;;;5106327;28;20032;-74
2021/03/16 08:57:54;;;;;;;28.17;6.18;;;8.70;61.50;;;;;;5102831;28;20024;-74
2021/03/16 09:00:30;;;;;;;28.25;6.20;;;8.60;61.30;;;;;;5105073;27;20065;-73
2021/03/16 09:02:57;;;;;;;31.65;7.63;;;8.60;61.40;;;;;;5102575;28;20028;-74
2021/03/16 09:05:27;;;;;;;28.88;6.95;;;8.60;60.60;;;;;;5098997;28;20385;-74
2021/03/16 09:07:58;;;;;;;33.28;5.97;;;8.60;61.00;;;;;;5102846;28;20031;-74
2021/03/16 09:10:26;;;;;;;23.20;6.95;;;8.50;62.00;;;;;;5105197;28;20022;-74
2021/03/16 09:12:53;;;;;;;19.88;5.72;;;8.40;60.90;;;;;;5098373;28;20421;-74
2021/03/16 09:15:22;;;;;;;30.80;8.90;;;8.50;61.30;;;;;;5095492;28;20040;-74
2021/03/16 09:17:56;;;;;;;32.30;6.35;;;8.50;61.40;;;;;;5100448;28;20048;-74
2021/03/16 09:20:27;;;;;;;25.65;7.03;;;8.40;61.50;;;;;;5104698;28;20111;-74
2021/03/16 09:23:09;;;;;;;36.88;6.45;;;8.30;61.40;;;;;;5098486;28;20032;-74
2021/03/16 09:25:46;;;;;;;19.30;6.18;;;8.30;61.90;;;;;;5103711;28;20341;-74
2021/03/16 09:28:14;;;;;;;26.77;6.03;;;8.20;61.30;;;;;;5101207;28;20115;-74
2021/03/16 09:33:36;;;;;;;26.95;5.90;;;8.10;62.00;;;;;;5102930;28;20461;-74
2021/03/16 09:36:03;;;;;;;35.78;10.55;;;8.10;62.80;;;;;;5101657;28;20442;-74
2021/03/16 09:38:30;;;;;;;28.08;6.18;;;8.00;62.30;;;;;;5105343;28;20023;-74
2021/03/16 09:40:57;;;;;;;34.17;6.30;;;8.10;62.70;;;;;;5102380;28;20051;-75
2021/03/16 09:43:25;;;;;;;25.23;5.80;;;8.10;63.40;;;;;;5101370;28;20042;-74
2021/03/16 09:45:57;;;;;;;27.98;6.72;;;8.10;62.90;;;;;;5102087;28;20437;-74
2021/03/16 09:48:24;;;;;;;24.97;6.57;;;8.10;62.90;;;;;;5101574;28;20042;-74
2021/03/16 09:50:51;;;;;;;27.73;6.78;;;8.10;63.30;;;;;;5101722;28;20675;-75
2021/03/16 09:53:20;;;;;;;25.38;4.68;;;8.10;63.30;;;;;;5097712;28;20028;-75
2021/03/16 09:55:58;;;;;;;33.53;7.30;;;8.10;63.40;;;;;;5102242;28;20115;-75
2021/03/16 09:58:26;;;;;;;21.85;5.45;;;8.10;63.30;;;;;;5102866;28;20046;-75
2021/03/16 10:00:53;;;;;;;23.88;6.28;;;8.10;63.40;;;;;;5104856;28;20028;-74
2021/03/16 10:03:21;;;;;;;19.73;5.15;;;8.10;63.50;;;;;;5102084;28;20036;-74
2021/03/16 10:05:48;;;;;;;24.77;6.40;;;8.00;63.60;;;;;;5103812;28;20024;-74
2021/03/16 10:08:24;;;;;;;18.38;5.00;;;8.00;63.50;;;;;;5102159;28;20054;-74
2021/03/16 10:10:51;;;;;;;23.00;6.03;;;7.90;63.70;;;;;;5101154;28;20098;-74
2021/03/16 10:13:39;;;;;;;28.65;6.07;;;7.80;64.30;;;;;;5102945;28;20024;-74
2021/03/16 10:16:15;;;;;;;19.00;6.07;;;7.80;63.60;;;;;;5096536;28;20534;-74
2021/03/16 10:18:48;;;;;;;20.30;5.22;;;7.90;63.60;;;;;;5103072;28;20437;-74
2021/03/16 10:21:16;;;;;;;21.67;5.25;;;7.90;64.10;;;;;;5105612;28;20353;-73
2021/03/16 10:23:42;;;;;;;24.58;5.55;;;7.90;63.50;;;;;;5101894;28;20019;-74
2021/03/16 10:26:11;;;;;;;27.00;6.47;;;7.80;63.90;;;;;;5100672;28;20023;-74
2021/03/16 10:28:40;;;;;;;25.42;5.90;;;7.80;64.30;;;;;;5100463;28;20125;-74
2021/03/16 10:31:11;;;;;;;34.22;6.22;;;7.80;63.80;;;;;;5101692;28;20031;-74
2021/03/16 10:33:37;;;;;;;26.27;5.28;;;7.80;63.70;;;;;;5101476;28;20035;-74
2021/03/16 10:36:05;;;;;;;22.05;6.25;;;7.90;64.10;;;;;;5103246;28;20020;-74
2021/03/16 10:38:32;;;;;;;30.77;6.30;;;7.90;64.60;;;;;;5100385;28;20409;-74
2021/03/16 10:40:58;;;;;;;17.83;5.07;;;7.90;63.90;;;;;;5101672;28;20016;-75
2021/03/16 10:43:25;;;;;;;22.48;6.65;;;7.90;64.20;;;;;;5102730;28;20408;-74
2021/03/16 10:45:55;;;;;;;18.77;5.55;;;7.80;64.40;;;;;;5102569;28;20028;-74
2021/03/16 10:48:23;;;;;;;23.85;5.00;;;7.80;64.20;;;;;;5099661;28;20038;-74
2021/03/16 10:50:49;;;;;;;27.27;5.38;;;7.70;63.80;;;;;;5102801;28;20027;-74
2021/03/16 10:53:18;;;;;;;11.80;4.88;;;7.70;64.00;;;;;;5102066;28;20031;-73
2021/03/16 10:55:45;;;;;;;12.82;4.93;;;7.80;64.50;;;;;;5102155;28;20028;-74
2021/03/16 10:58:11;;;;;;;21.30;5.80;;;7.90;64.40;;;;;;5099558;28;20492;-74
2021/03/16 11:00:38;;;;;;;25.35;6.55;;;7.90;64.80;;;;;;5103051;28;20473;-74
2021/03/16 11:03:05;;;;;;;25.30;5.72;;;7.80;64.50;;;;;;5100651;28;20441;-74
2021/03/16 11:05:32;;;;;;;23.60;5.40;;;7.90;65.80;;;;;;5102829;28;20027;-75
2021/03/16 11:07:59;;;;;;;25.33;6.30;;;8.00;65.70;;;;;;5098855;28;20038;-74
2021/03/16 11:10:25;;;;;;;27.15;5.53;;;7.90;65.00;;;;;;5101940;28;20099;-74
2021/03/16 11:12:52;;;;;;;27.40;5.65;;;7.70;64.70;;;;;;5102710;28;20019;-74
2021/03/16 11:15:18;;;;;;;24.70;6.20;;;7.70;65.10;;;;;;5101349;28;20482;-73
2021/03/16 11:17:45;;;;;;;21.88;5.47;;;7.60;64.40;;;;;;5100271;28;20081;-74
2021/03/16 11:20:12;;;;;;;20.30;5.75;;;7.70;65.10;;;;;;5100842;28;20024;-74
2021/03/16 11:22:39;;;;;;;23.60;5.53;;;7.70;65.60;;;;;;5102585;28;20070;-74
2021/03/16 11:25:06;;;;;;;26.80;4.50;;;7.60;64.90;;;;;;5104309;28;20062;-74
2021/03/16 11:27:34;;;;;;;26.75;5.18;;;7.50;65.30;;;;;;5099565;28;20019;-74
2021/03/16 11:30:01;;;;;;;19.65;4.22;;;7.50;65.30;;;;;;5100889;28;20042;-75
2021/03/16 11:32:28;;;;;;;19.70;5.00;;;7.50;65.20;;;;;;5101636;28;20106;-75
2021/03/16 11:34:54;;;;;;;21.73;5.70;;;7.50;64.70;;;;;;5099563;28;20041;-74
2021/03/16 11:37:20;;;;;;;21.13;5.68;;;7.40;64.30;;;;;;5102103;28;20108;-74
2021/03/16 11:39:47;;;;;;;19.60;5.13;;;7.40;65.40;;;;;;5103118;28;20345;-74
2021/03/16 11:42:13;;;;;;;14.30;4.47;;;7.40;65.30;;;;;;5103252;28;20101;-74
2021/03/16 11:44:40;;;;;;;15.73;5.20;;;7.50;65.80;;;;;;5105042;28;20030;-74
2021/03/16 11:47:07;;;;;;;20.75;4.97;;;7.50;65.90;;;;;;5104087;28;20034;-74
2021/03/16 11:49:34;;;;;;;12.73;3.83;;;7.40;65.00;;;;;;5106231;28;20039;-74
2021/03/16 11:52:00;;;;;;;19.90;4.95;;;7.30;65.40;;;;;;5102433;28;20020;-74
2021/03/16 11:54:26;;;;;;;18.40;4.28;;;7.30;65.30;;;;;;5105676;28;20302;-74
2021/03/16 11:56:53;;;;;;;14.55;5.07;;;7.30;65.50;;;;;;5104544;28;20035;-74
2021/03/16 11:59:19;;;;;;;20.92;4.68;;;7.20;65.30;;;;;;5105321;28;20031;-74
2021/03/16 12:01:46;;;;;;;20.48;5.30;;;7.30;65.80;;;;;;5103733;28;20357;-74
2021/03/16 12:04:12;;;;;;;26.38;5.75;;;7.40;65.60;;;;;;5104216;28;20020;-74
2021/03/16 12:06:39;;;;;;;26.10;4.53;;;7.50;65.90;;;;;;5105348;28;20114;-73
2021/03/16 12:09:07;;;;;;;16.42;4.20;;;7.60;66.00;;;;;;5105630;28;20024;-74
2021/03/16 12:11:34;;;;;;;19.20;5.47;;;7.70;66.20;;;;;;5103777;28;20107;-74
2021/03/16 12:14:01;;;;;;;22.05;5.85;;;7.50;65.20;;;;;;5102467;28;20024;-74
2021/03/16 12:16:28;;;;;;;22.67;4.97;;;7.40;65.70;;;;;;5103870;28;20034;-74
2021/03/16 12:18:54;;;;;;;14.10;3.75;;;7.30;65.20;;;;;;5100549;28;20096;-74
2021/03/16 12:21:21;;;;;;;16.23;5.20;;;7.20;65.50;;;;;;5101709;28;20538;-74
2021/03/16 12:23:47;;;;;;;17.77;5.13;;;7.00;65.30;;;;;;5105818;28;20059;-74
2021/03/16 12:26:15;;;;;;;16.77;3.90;;;6.90;66.20;;;;;;5102507;28;20023;-73
2021/03/16 12:28:41;;;;;;;15.70;4.45;;;6.90;66.50;;;;;;5105020;28;20028;-74
2021/03/16 12:31:08;;;;;;;12.68;4.65;;;6.90;66.10;;;;;;5104296;28;20028;-74
2021/03/16 12:33:34;;;;;;;16.90;5.18;;;7.00;65.90;;;;;;5104633;28;20450;-74
2021/03/16 12:36:01;;;;;;;14.07;5.28;;;7.00;65.10;;;;;;5106050;28;20457;-74
2021/03/16 12:38:27;;;;;;;18.30;4.43;;;7.10;65.60;;;;;;5104548;28;20020;-74
2021/03/16 12:40:53;;;;;;;16.38;5.38;;;7.20;65.80;;;;;;5104919;28;20024;-74
2021/03/16 12:43:21;;;;;;;19.15;5.13;;;7.40;65.80;;;;;;5106400;28;20035;-74
2021/03/16 12:45:48;;;;;;;15.73;4.65;;;7.30;65.80;;;;;;5101899;28;20024;-74
2021/03/16 12:48:14;;;;;;;22.23;5.28;;;7.30;65.20;;;;;;5104407;28;20020;-74
2021/03/16 12:50:41;;;;;;;18.50;4.30;;;7.20;65.80;;;;;;5106848;28;20015;-74
2021/03/16 12:53:07;;;;;;;8.65;3.75;;;7.00;66.70;;;;;;5102274;28;20032;-74